Time;durP1;ratioP1;P1;durP2;ratioP2;P2;SDS_P1;SDS_P2;PMS_P1;PMS_P2;Temp;Humidity;BMP_temperature;BMP_pressure;BME280_temperature;BME280_humidity;BME280_pressure;Samples;Min_cycle;Max_cycle;Signal;HPM_P1;HPM_P2
2023/01/06 00:00:24;;;;;;;6.30;1.20;;;;;;;;;;5015439;28;20072;-77
2023/01/06 00:02:50;;;;;;;4.40;1.75;;;;;;;;;;4997342;28;20432;-77
2023/01/06 00:05:15;;;;;;;3.65;1.63;;;;;;;;;;5015541;28;20104;-77
2023/01/06 00:07:42;;;;;;;6.55;1.50;;;;;;;;;;5015677;28;20438;-77
2023/01/06 00:10:07;;;;;;;6.18;1.45;;;;;;;;;;4997493;28;20042;-77
2023/01/06 00:12:33;;;;;;;4.45;1.00;;;;;;;;;;4997483;28;20060;-77
2023/01/06 00:14:58;;;;;;;4.93;1.20;;;;;;;;;;4997484;28;20345;-77
2023/01/06 00:17:23;;;;;;;4.90;1.30;;;;;;;;;;4997694;28;20048;-78
2023/01/06 00:19:48;;;;;;;2.67;1.35;;;;;;;;;;4995633;28;20022;-77
2023/01/06 00:22:14;;;;;;;5.50;1.30;;;;;;;;;;5015515;28;20049;-78
2023/01/06 00:24:39;;;;;;;3.63;1.08;;;;;;;;;;4997388;28;20025;-77
2023/01/06 00:27:04;;;;;;;7.40;1.25;;;;;;;;;;4997312;28;20022;-77
2023/01/06 00:29:29;;;;;;;5.15;1.25;;;;;;;;;;5014832;28;20057;-77
2023/01/06 00:31:54;;;;;;;3.47;1.27;;;;;;;;;;5015004;28;20010;-78
2023/01/06 00:34:20;;;;;;;7.28;1.02;;;;;;;;;;4996621;28;20021;-78
2023/01/06 00:36:45;;;;;;;3.75;1.15;;;;;;;;;;5014650;28;20775;-77
2023/01/06 00:39:11;;;;;;;4.25;1.00;;;;;;;;;;5014792;28;20469;-78
2023/01/06 00:44:20;;;;;;;7.32;1.30;;;;;;;;;;5011688;28;20149;-77
2023/01/06 00:46:45;;;;;;;6.88;1.08;;;;;;;;;;5010811;28;20113;-78
2023/01/06 00:49:11;;;;;;;6.95;1.10;;;;;;;;;;4996760;28;20014;-77
2023/01/06 00:51:37;;;;;;;5.03;1.25;;;;;;;;;;5013914;28;20029;-77
2023/01/06 00:54:02;;;;;;;4.57;0.93;;;;;;;;;;5014446;28;20018;-78
2023/01/06 00:56:27;;;;;;;3.65;1.10;;;;;;;;;;5014913;28;20028;-77
2023/01/06 00:58:52;;;;;;;2.67;1.00;;;;;;;;;;5014317;28;20017;-77
2023/01/06 01:01:18;;;;;;;4.40;1.15;;;;;;;;;;5014377;28;20127;-77
2023/01/06 01:03:43;;;;;;;5.32;1.13;;;;;;;;;;5014207;28;20033;-77
2023/01/06 01:06:09;;;;;;;2.90;1.50;;;;;;;;;;5012937;28;20504;-77
2023/01/06 01:08:34;;;;;;;5.43;1.10;;;;;;;;;;5012920;28;20037;-77
2023/01/06 01:11:07;;;;;;;2.65;1.10;;;;;;;;;;4996668;28;20100;-77
2023/01/06 01:13:32;;;;;;;2.35;1.05;;;;;;;;;;5014227;28;20025;-77
2023/01/06 01:16:02;;;;;;;3.10;1.00;;;;;;;;;;5014270;28;20053;-77
2023/01/06 01:18:27;;;;;;;2.78;1.05;;;;;;;;;;4996453;28;20018;-77
2023/01/06 01:20:52;;;;;;;5.28;1.13;;;;;;;;;;5014139;28;20033;-77
2023/01/06 01:23:17;;;;;;;6.90;1.25;;;;;;;;;;4994383;28;20067;-77
2023/01/06 01:25:43;;;;;;;5.13;1.10;;;;;;;;;;5013367;28;20053;-77
2023/01/06 01:28:08;;;;;;;6.63;1.23;;;;;;;;;;5013914;28;20029;-77
2023/01/06 01:30:33;;;;;;;4.75;1.10;;;;;;;;;;4996473;28;20086;-77
2023/01/06 01:32:58;;;;;;;3.92;0.82;;;;;;;;;;4996118;28;20022;-77
2023/01/06 01:35:24;;;;;;;2.00;0.80;;;;;;;;;;4996150;28;20390;-77
2023/01/06 01:37:49;;;;;;;6.55;0.90;;;;;;;;;;5013842;28;20061;-77
2023/01/06 01:40:15;;;;;;;4.50;0.88;;;;;;;;;;5012137;28;20014;-78
2023/01/06 01:42:40;;;;;;;5.80;0.90;;;;;;;;;;4996147;28;20025;-78
2023/01/06 01:45:15;;;;;;;4.05;0.80;;;;;;;;;;4988602;28;20029;-77
2023/01/06 01:47:46;;;;;;;6.07;1.00;;;;;;;;;;4995898;28;20018;-77
2023/01/06 01:50:19;;;;;;;7.07;0.95;;;;;;;;;;5013502;28;20034;-77
2023/01/06 01:52:46;;;;;;;3.80;0.77;;;;;;;;;;5012353;28;20014;-77
2023/01/06 01:55:12;;;;;;;5.53;0.90;;;;;;;;;;4995743;28;20014;-77
2023/01/06 01:57:52;;;;;;;2.20;0.80;;;;;;;;;;5012636;28;20067;-77
2023/01/06 02:00:17;;;;;;;5.82;0.77;;;;;;;;;;5013358;28;20157;-77
2023/01/06 02:02:43;;;;;;;2.40;0.80;;;;;;;;;;4995700;28;20397;-77
2023/01/06 02:05:10;;;;;;;3.15;0.65;;;;;;;;;;4995451;28;20045;-77
2023/01/06 02:07:35;;;;;;;3.33;1.00;;;;;;;;;;5013568;28;20160;-78
2023/01/06 02:10:07;;;;;;;4.80;1.02;;;;;;;;;;5013052;28;20473;-77
2023/01/06 02:12:32;;;;;;;6.25;0.75;;;;;;;;;;5013020;28;20057;-77
2023/01/06 02:14:58;;;;;;;4.15;0.80;;;;;;;;;;4995018;28;20141;-77
2023/01/06 02:17:36;;;;;;;2.90;0.90;;;;;;;;;;5012627;28;20022;-77
2023/01/06 02:20:20;;;;;;;3.20;1.17;;;;;;;;;;5012646;28;20465;-77
2023/01/06 02:22:49;;;;;;;5.25;0.70;;;;;;;;;;4995372;28;20026;-77
2023/01/06 02:25:14;;;;;;;3.65;0.70;;;;;;;;;;5012418;28;20030;-77
2023/01/06 02:27:57;;;;;;;3.10;0.68;;;;;;;;;;5012842;28;20014;-77
2023/01/06 02:30:25;;;;;;;6.43;0.88;;;;;;;;;;4995192;28;20025;-77
2023/01/06 02:33:01;;;;;;;3.25;0.70;;;;;;;;;;4994910;28;20075;-77
2023/01/06 02:35:27;;;;;;;4.63;1.00;;;;;;;;;;5011613;28;20628;-77
2023/01/06 02:37:58;;;;;;;2.00;0.50;;;;;;;;;;4995013;28;20072;-77
2023/01/06 02:40:32;;;;;;;2.37;0.70;;;;;;;;;;5012409;28;20033;-77
2023/01/06 02:43:06;;;;;;;4.32;1.20;;;;;;;;;;5011799;28;20022;-77
2023/01/06 02:45:57;;;;;;;4.57;0.77;;;;;;;;;;5003112;28;20021;-77
2023/01/06 02:48:29;;;;;;;2.05;0.70;;;;;;;;;;5012755;28;20018;-77
2023/01/06 02:50:54;;;;;;;1.73;0.70;;;;;;;;;;5012408;28;20144;-77
2023/01/06 02:53:28;;;;;;;4.20;0.75;;;;;;;;;;5011618;28;20097;-77
2023/01/06 02:55:55;;;;;;;2.55;0.90;;;;;;;;;;4994673;28;20021;-78
2023/01/06 02:58:35;;;;;;;3.38;0.80;;;;;;;;;;5012389;28;20021;-77
2023/01/06 03:01:21;;;;;;;3.45;1.08;;;;;;;;;;4994155;28;20018;-77
2023/01/06 03:03:47;;;;;;;1.20;0.68;;;;;;;;;;5011819;28;20018;-77
2023/01/06 03:06:16;;;;;;;1.83;0.70;;;;;;;;;;5011193;28;20439;-77
2023/01/06 03:08:43;;;;;;;3.38;0.82;;;;;;;;;;5012122;28;20017;-77
2023/01/06 03:11:08;;;;;;;3.88;0.70;;;;;;;;;;5012409;28;20021;-77
2023/01/06 03:13:36;;;;;;;6.60;0.70;;;;;;;;;;5012365;28;20396;-77
2023/01/06 03:16:02;;;;;;;6.05;0.80;;;;;;;;;;5012185;28;20025;-77
2023/01/06 03:18:27;;;;;;;4.97;0.95;;;;;;;;;;4994193;28;20436;-77
2023/01/06 03:20:56;;;;;;;3.50;0.70;;;;;;;;;;5011190;28;20017;-78
2023/01/06 03:23:21;;;;;;;3.20;0.82;;;;;;;;;;5011636;28;20025;-77
2023/01/06 03:25:46;;;;;;;2.80;0.60;;;;;;;;;;5012061;28;20017;-77
2023/01/06 03:28:12;;;;;;;3.53;0.82;;;;;;;;;;5011485;28;20060;-77
2023/01/06 03:31:01;;;;;;;1.98;0.68;;;;;;;;;;4993541;28;20461;-77
2023/01/06 03:33:49;;;;;;;2.05;0.80;;;;;;;;;;5011470;28;20084;-77
2023/01/06 03:36:27;;;;;;;3.83;0.70;;;;;;;;;;4991013;28;20092;-77
2023/01/06 03:39:04;;;;;;;2.08;0.70;;;;;;;;;;5010698;28;20068;-78
2023/01/06 03:45:03;;;;;;;3.08;0.77;;;;;;;;;;4989571;28;20035;-77
2023/01/06 03:47:41;;;;;;;3.33;0.60;;;;;;;;;;4999825;28;20053;-77
2023/01/06 03:50:12;;;;;;;6.55;1.23;;;;;;;;;;5011628;28;20022;-77
2023/01/06 03:52:42;;;;;;;2.95;0.65;;;;;;;;;;4994274;28;20149;-78
2023/01/06 03:55:10;;;;;;;3.53;0.82;;;;;;;;;;5011341;28;20022;-77
2023/01/06 03:57:37;;;;;;;5.55;0.95;;;;;;;;;;4993334;28;20084;-78
2023/01/06 04:00:09;;;;;;;4.75;0.70;;;;;;;;;;5011620;28;20369;-77
2023/01/06 04:02:36;;;;;;;2.13;0.93;;;;;;;;;;4993922;28;20077;-78
2023/01/06 04:05:12;;;;;;;3.05;0.70;;;;;;;;;;5011386;28;20016;-77
2023/01/06 04:07:38;;;;;;;2.35;0.60;;;;;;;;;;5011386;28;20030;-77
2023/01/06 04:10:04;;;;;;;4.75;0.90;;;;;;;;;;4993375;28;20041;-77
2023/01/06 04:12:38;;;;;;;2.00;0.60;;;;;;;;;;4993905;28;20084;-77
2023/01/06 04:15:08;;;;;;;4.40;0.68;;;;;;;;;;4993487;28;20034;-77
2023/01/06 04:17:34;;;;;;;3.13;0.98;;;;;;;;;;5011989;28;20018;-77
2023/01/06 04:19:59;;;;;;;7.38;0.70;;;;;;;;;;5011424;28;20014;-77
2023/01/06 04:22:24;;;;;;;4.90;0.82;;;;;;;;;;5011880;28;20429;-78
2023/01/06 04:24:49;;;;;;;2.33;0.82;;;;;;;;;;4993665;28;20022;-77
2023/01/06 04:27:15;;;;;;;2.85;0.80;;;;;;;;;;5011523;28;20091;-77
2023/01/06 04:29:40;;;;;;;1.92;0.60;;;;;;;;;;5010745;28;20018;-77
2023/01/06 04:32:05;;;;;;;1.67;0.60;;;;;;;;;;5010410;28;20022;-77
2023/01/06 04:34:30;;;;;;;2.67;0.90;;;;;;;;;;4993276;28;20098;-77
2023/01/06 04:36:55;;;;;;;2.75;0.70;;;;;;;;;;5011289;28;20385;-78
2023/01/06 04:39:21;;;;;;;0.98;0.55;;;;;;;;;;5011039;28;20025;-77
2023/01/06 04:41:46;;;;;;;2.03;0.73;;;;;;;;;;4994714;28;20029;-77
2023/01/06 04:44:11;;;;;;;3.53;0.70;;;;;;;;;;5012840;28;20022;-78
2023/01/06 04:46:36;;;;;;;3.67;0.80;;;;;;;;;;5009681;28;20365;-77
2023/01/06 04:49:01;;;;;;;5.95;0.63;;;;;;;;;;5014680;28;20092;-77
2023/01/06 04:51:26;;;;;;;2.10;0.80;;;;;;;;;;5014231;28;20055;-78
2023/01/06 04:53:52;;;;;;;1.35;0.60;;;;;;;;;;5014437;28;20068;-77
2023/01/06 04:56:17;;;;;;;1.50;0.60;;;;;;;;;;5014756;28;20143;-76
2023/01/06 04:58:42;;;;;;;5.00;0.85;;;;;;;;;;5014300;28;20069;-77
2023/01/06 05:01:08;;;;;;;3.90;0.70;;;;;;;;;;5014538;28;20022;-77
2023/01/06 05:03:34;;;;;;;4.68;0.90;;;;;;;;;;5014416;28;20032;-78
2023/01/06 05:06:04;;;;;;;1.95;0.65;;;;;;;;;;5014513;28;21029;-77
2023/01/06 05:08:30;;;;;;;1.02;0.60;;;;;;;;;;5013667;28;20049;-77
2023/01/06 05:10:59;;;;;;;2.35;0.80;;;;;;;;;;5014271;28;20049;-77
2023/01/06 05:13:24;;;;;;;1.95;0.75;;;;;;;;;;4996622;28;20022;-78
2023/01/06 05:15:49;;;;;;;3.67;1.00;;;;;;;;;;5014590;28;20535;-78
2023/01/06 05:18:14;;;;;;;4.05;0.80;;;;;;;;;;4996325;28;20113;-78
2023/01/06 05:20:40;;;;;;;2.25;0.70;;;;;;;;;;5014152;28;20512;-77
2023/01/06 05:23:05;;;;;;;2.65;0.80;;;;;;;;;;4996249;28;20022;-77
2023/01/06 05:25:30;;;;;;;5.07;0.70;;;;;;;;;;5012702;28;20056;-77
2023/01/06 05:27:55;;;;;;;2.22;0.68;;;;;;;;;;4996289;28;20500;-77
2023/01/06 05:30:20;;;;;;;2.50;0.77;;;;;;;;;;5014050;28;20029;-77
2023/01/06 05:32:45;;;;;;;1.65;0.65;;;;;;;;;;4996543;28;20050;-77
2023/01/06 05:35:11;;;;;;;2.72;0.77;;;;;;;;;;4996162;28;20442;-77
2023/01/06 05:37:36;;;;;;;3.50;0.98;;;;;;;;;;5013873;28;20033;-77
2023/01/06 05:40:01;;;;;;;2.05;0.40;;;;;;;;;;5013833;28;20037;-77
2023/01/06 05:42:26;;;;;;;1.15;0.60;;;;;;;;;;5014104;28;20026;-77
2023/01/06 05:44:51;;;;;;;3.08;0.80;;;;;;;;;;5006142;28;20076;-77
2023/01/06 05:47:17;;;;;;;3.63;1.00;;;;;;;;;;5013727;28;20064;-77
2023/01/06 05:49:42;;;;;;;1.98;0.50;;;;;;;;;;4995990;28;20014;-77
2023/01/06 05:52:07;;;;;;;2.85;0.98;;;;;;;;;;5013798;28;20085;-77
2023/01/06 05:54:32;;;;;;;4.45;1.00;;;;;;;;;;5012539;28;20017;-77
2023/01/06 05:56:57;;;;;;;1.55;0.80;;;;;;;;;;5013551;28;20053;-77
2023/01/06 05:59:22;;;;;;;4.50;0.93;;;;;;;;;;5013477;28;20045;-77
2023/01/06 06:01:48;;;;;;;2.28;0.82;;;;;;;;;;4995250;28;20049;-78
2023/01/06 06:04:13;;;;;;;4.90;1.00;;;;;;;;;;5013161;28;20128;-77
2023/01/06 06:06:39;;;;;;;2.45;1.00;;;;;;;;;;4995653;28;20022;-77
2023/01/06 06:09:04;;;;;;;1.60;0.73;;;;;;;;;;5013215;28;20018;-77
2023/01/06 06:11:29;;;;;;;3.00;0.93;;;;;;;;;;5013101;28;20564;-78
2023/01/06 06:13:55;;;;;;;9.77;1.38;;;;;;;;;;4995221;28;20026;-77
2023/01/06 06:16:22;;;;;;;3.55;1.30;;;;;;;;;;5012922;28;20033;-77
2023/01/06 06:18:48;;;;;;;2.97;1.10;;;;;;;;;;5011133;28;20048;-77
2023/01/06 06:21:14;;;;;;;2.65;1.00;;;;;;;;;;4995265;28;20033;-77
2023/01/06 06:23:40;;;;;;;2.47;1.02;;;;;;;;;;4995155;28;20037;-78
2023/01/06 06:26:06;;;;;;;3.55;1.00;;;;;;;;;;5012926;28;20414;-78
2023/01/06 06:28:34;;;;;;;3.45;1.00;;;;;;;;;;5013060;28;20018;-77
2023/01/06 06:31:09;;;;;;;6.55;1.00;;;;;;;;;;5013111;28;20018;-78
2023/01/06 06:33:34;;;;;;;1.77;0.93;;;;;;;;;;5012149;28;20021;-77
2023/01/06 06:35:59;;;;;;;2.50;1.00;;;;;;;;;;4995259;28;20033;-77
2023/01/06 06:38:25;;;;;;;4.22;0.93;;;;;;;;;;5013069;28;20034;-78
2023/01/06 06:40:50;;;;;;;0.98;0.80;;;;;;;;;;5012940;28;20084;-77
2023/01/06 06:43:15;;;;;;;1.98;0.85;;;;;;;;;;4994864;28;20030;-77
2023/01/06 06:45:43;;;;;;;4.22;1.33;;;;;;;;;;4995038;28;20064;-77
2023/01/06 06:48:08;;;;;;;2.45;0.80;;;;;;;;;;5012535;28;20487;-77
2023/01/06 06:50:33;;;;;;;3.42;1.02;;;;;;;;;;5011725;28;20021;-77
2023/01/06 06:52:58;;;;;;;1.90;0.90;;;;;;;;;;4994855;28;20160;-77
2023/01/06 06:55:23;;;;;;;1.63;0.90;;;;;;;;;;4994422;28;20080;-77
2023/01/06 06:57:49;;;;;;;1.67;0.80;;;;;;;;;;5012292;28;20025;-77
2023/01/06 07:00:14;;;;;;;2.67;0.90;;;;;;;;;;5012269;28;20076;-77
2023/01/06 07:02:39;;;;;;;1.85;0.68;;;;;;;;;;5011080;28;20018;-77
2023/01/06 07:05:04;;;;;;;2.33;0.85;;;;;;;;;;5000720;28;20056;-78
2023/01/06 07:07:30;;;;;;;3.70;0.82;;;;;;;;;;5011174;28;20099;-77
2023/01/06 07:09:55;;;;;;;2.85;0.68;;;;;;;;;;4997120;28;20018;-77
2023/01/06 07:12:20;;;;;;;1.77;0.80;;;;;;;;;;5008612;28;20056;-77
2023/01/06 07:14:48;;;;;;;1.75;0.70;;;;;;;;;;5011128;28;20017;-77
2023/01/06 07:17:13;;;;;;;3.85;0.80;;;;;;;;;;5011708;28;20057;-77
2023/01/06 07:19:38;;;;;;;2.88;0.77;;;;;;;;;;5011857;28;20022;-78
2023/01/06 07:22:03;;;;;;;2.45;0.80;;;;;;;;;;4995198;28;20108;-78
2023/01/06 07:24:29;;;;;;;1.00;0.70;;;;;;;;;;5012134;28;20030;-77
2023/01/06 07:26:54;;;;;;;1.70;0.70;;;;;;;;;;4993510;28;20029;-77
2023/01/06 07:29:19;;;;;;;1.27;0.45;;;;;;;;;;5012080;28;20331;-77
2023/01/06 07:31:44;;;;;;;2.88;0.80;;;;;;;;;;5011029;28;20018;-77
2023/01/06 07:34:09;;;;;;;2.17;0.60;;;;;;;;;;4994349;28;20088;-77
2023/01/06 07:36:35;;;;;;;2.13;0.60;;;;;;;;;;5006864;28;20065;-77
2023/01/06 07:39:00;;;;;;;5.55;0.68;;;;;;;;;;5002851;28;20372;-78
2023/01/06 07:41:25;;;;;;;3.80;0.70;;;;;;;;;;4997245;28;20026;-77
2023/01/06 07:43:50;;;;;;;3.15;0.80;;;;;;;;;;4997485;28;20492;-77
2023/01/06 07:46:15;;;;;;;2.55;0.60;;;;;;;;;;4999128;28;20034;-78
2023/01/06 07:48:41;;;;;;;1.25;0.52;;;;;;;;;;5004805;28;20025;-78
2023/01/06 07:51:06;;;;;;;1.35;0.60;;;;;;;;;;5006003;28;20021;-78
2023/01/06 07:53:31;;;;;;;1.02;0.52;;;;;;;;;;4993717;28;20465;-77
2023/01/06 07:55:56;;;;;;;0.57;0.50;;;;;;;;;;5008570;28;20022;-78
2023/01/06 07:58:24;;;;;;;2.17;0.70;;;;;;;;;;5010982;28;20026;-77
2023/01/06 08:00:50;;;;;;;0.88;0.60;;;;;;;;;;5007841;28;20044;-78
2023/01/06 08:03:15;;;;;;;1.75;0.68;;;;;;;;;;4993667;28;20450;-78
2023/01/06 08:05:40;;;;;;;3.03;0.80;;;;;;;;;;5011739;28;20025;-77
2023/01/06 08:08:06;;;;;;;2.30;0.82;;;;;;;;;;5008868;28;20018;-78
2023/01/06 08:10:31;;;;;;;1.30;0.55;;;;;;;;;;5011728;28;20022;-78
2023/01/06 08:12:56;;;;;;;0.77;0.68;;;;;;;;;;5010918;28;20042;-78
2023/01/06 08:15:22;;;;;;;1.55;0.60;;;;;;;;;;4992641;28;20105;-77
2023/01/06 08:17:50;;;;;;;4.95;0.70;;;;;;;;;;5013425;28;20357;-78
2023/01/06 08:20:16;;;;;;;2.45;0.50;;;;;;;;;;5014527;28;20029;-77
2023/01/06 08:22:41;;;;;;;7.72;0.70;;;;;;;;;;4996948;28;20028;-78
2023/01/06 08:25:06;;;;;;;1.48;0.70;;;;;;;;;;5014419;28;20097;-78
2023/01/06 08:27:33;;;;;;;1.20;0.70;;;;;;;;;;5014851;28;20117;-79
2023/01/06 08:29:58;;;;;;;1.58;0.70;;;;;;;;;;4996313;28;20104;-78
2023/01/06 08:32:23;;;;;;;2.08;0.77;;;;;;;;;;4999060;28;20113;-78
2023/01/06 08:34:48;;;;;;;3.00;0.80;;;;;;;;;;5015102;28;20024;-77
2023/01/06 08:37:14;;;;;;;2.88;0.98;;;;;;;;;;5015126;28;20045;-78
2023/01/06 08:39:39;;;;;;;2.45;0.80;;;;;;;;;;4997565;28;20428;-77
2023/01/06 08:42:04;;;;;;;1.20;1.00;;;;;;;;;;5015139;28;20045;-77
2023/01/06 08:44:29;;;;;;;1.05;0.63;;;;;;;;;;4992974;28;20470;-77
2023/01/06 08:46:54;;;;;;;0.70;0.60;;;;;;;;;;4994666;28;20026;-78
2023/01/06 08:49:20;;;;;;;1.02;0.65;;;;;;;;;;5008740;28;20465;-78
2023/01/06 08:51:45;;;;;;;1.67;0.77;;;;;;;;;;4998598;28;20079;-78
2023/01/06 08:54:10;;;;;;;2.22;0.65;;;;;;;;;;5011612;28;20109;-77
2023/01/06 08:56:35;;;;;;;2.08;0.70;;;;;;;;;;4997493;28;20041;-78
2023/01/06 08:59:01;;;;;;;2.38;1.20;;;;;;;;;;4996554;28;20041;-77
2023/01/06 09:01:28;;;;;;;5.30;0.98;;;;;;;;;;4996940;28;20049;-77
2023/01/06 09:03:54;;;;;;;2.42;1.00;;;;;;;;;;4998774;28;20013;-77
2023/01/06 09:06:20;;;;;;;1.90;0.95;;;;;;;;;;5010728;28;20108;-78
2023/01/06 09:08:47;;;;;;;3.40;0.80;;;;;;;;;;4997000;28;20357;-77
2023/01/06 09:11:12;;;;;;;3.83;0.90;;;;;;;;;;4996441;28;20133;-77
2023/01/06 09:13:38;;;;;;;1.60;0.95;;;;;;;;;;4996508;28;20033;-77
2023/01/06 09:16:07;;;;;;;3.10;0.80;;;;;;;;;;5013735;28;20345;-78
2023/01/06 09:18:32;;;;;;;1.85;0.73;;;;;;;;;;5012416;28;20028;-77
2023/01/06 09:20:57;;;;;;;1.95;1.13;;;;;;;;;;5013419;28;20022;-78
2023/01/06 09:23:22;;;;;;;3.83;1.23;;;;;;;;;;4994416;28;20073;-77
2023/01/06 09:25:48;;;;;;;2.88;0.80;;;;;;;;;;4994437;28;20049;-77
2023/01/06 09:28:13;;;;;;;1.83;0.90;;;;;;;;;;5012089;28;20485;-78
2023/01/06 09:30:39;;;;;;;4.40;0.88;;;;;;;;;;5014635;28;20599;-78
2023/01/06 09:33:04;;;;;;;3.67;0.95;;;;;;;;;;5013836;28;20021;-78
2023/01/06 09:35:30;;;;;;;2.42;0.95;;;;;;;;;;4996509;28;20018;-77
2023/01/06 09:37:55;;;;;;;4.80;1.05;;;;;;;;;;5013718;28;20032;-77
2023/01/06 09:40:23;;;;;;;1.83;0.90;;;;;;;;;;5012380;28;20473;-78
2023/01/06 09:43:04;;;;;;;2.25;1.23;;;;;;;;;;4995353;28;20465;-78
2023/01/06 09:45:34;;;;;;;1.15;0.80;;;;;;;;;;5005880;28;20018;-78
2023/01/06 09:48:02;;;;;;;2.47;1.02;;;;;;;;;;5013816;28;20483;-77
2023/01/06 09:50:31;;;;;;;3.58;0.95;;;;;;;;;;5012607;28;20021;-78
2023/01/06 09:53:00;;;;;;;3.42;1.10;;;;;;;;;;4995983;28;20022;-77
2023/01/06 09:55:37;;;;;;;2.10;0.85;;;;;;;;;;5013401;28;20026;-77
2023/01/06 09:58:17;;;;;;;0.98;0.88;;;;;;;;;;5012592;28;20096;-78
2023/01/06 10:00:43;;;;;;;2.97;0.90;;;;;;;;;;4994768;28;20044;-78
2023/01/06 10:03:13;;;;;;;1.25;0.90;;;;;;;;;;4995862;28;20041;-77
2023/01/06 10:05:39;;;;;;;2.55;1.00;;;;;;;;;;5013530;28;20032;-77
2023/01/06 10:08:13;;;;;;;2.63;0.93;;;;;;;;;;5013025;28;20410;-78
2023/01/06 10:11:04;;;;;;;3.80;0.77;;;;;;;;;;4995636;28;20022;-77
2023/01/06 10:13:41;;;;;;;2.95;0.80;;;;;;;;;;5011045;28;20029;-77
2023/01/06 10:16:25;;;;;;;2.53;1.10;;;;;;;;;;4994666;28;20102;-77
2023/01/06 10:18:57;;;;;;;2.17;0.80;;;;;;;;;;5011841;28;20425;-77
2023/01/06 10:21:30;;;;;;;5.10;1.10;;;;;;;;;;4994367;28;20053;-78
2023/01/06 10:24:14;;;;;;;1.42;0.80;;;;;;;;;;4995314;28;20060;-77
2023/01/06 10:26:52;;;;;;;2.63;0.80;;;;;;;;;;5011487;28;20028;-78
2023/01/06 10:29:18;;;;;;;1.30;0.80;;;;;;;;;;5011002;28;20105;-77
2023/01/06 10:31:44;;;;;;;2.25;0.70;;;;;;;;;;5011152;28;20480;-78
2023/01/06 10:34:19;;;;;;;2.13;0.80;;;;;;;;;;4994933;28;20068;-78
2023/01/06 10:36:47;;;;;;;4.93;0.77;;;;;;;;;;4994389;28;20037;-77
2023/01/06 10:39:14;;;;;;;3.47;0.77;;;;;;;;;;5012382;28;20461;-78
2023/01/06 10:41:40;;;;;;;5.00;1.13;;;;;;;;;;5012620;28;20018;-77
2023/01/06 10:44:06;;;;;;;2.92;1.17;;;;;;;;;;4993928;28;20075;-78
2023/01/06 10:46:35;;;;;;;2.75;0.90;;;;;;;;;;4994428;28;20435;-77
2023/01/06 10:49:01;;;;;;;1.90;0.90;;;;;;;;;;5012448;28;20354;-77
2023/01/06 10:51:32;;;;;;;5.30;0.93;;;;;;;;;;4995175;28;20037;-78
2023/01/06 10:53:59;;;;;;;0.90;0.80;;;;;;;;;;5012040;28;20063;-77
2023/01/06 10:56:27;;;;;;;0.88;0.70;;;;;;;;;;4994842;28;20555;-78
2023/01/06 10:58:55;;;;;;;1.02;0.70;;;;;;;;;;5012120;28;20022;-78
2023/01/06 11:01:27;;;;;;;3.47;1.30;;;;;;;;;;5012714;28;20049;-78
2023/01/06 11:04:06;;;;;;;1.27;0.82;;;;;;;;;;5011066;28;20056;-77
2023/01/06 11:06:33;;;;;;;1.75;0.82;;;;;;;;;;4999732;28;20030;-77
2023/01/06 11:08:58;;;;;;;1.27;0.73;;;;;;;;;;5012222;28;20018;-77
2023/01/06 11:11:23;;;;;;;0.77;0.70;;;;;;;;;;4994894;28;20141;-78
2023/01/06 11:13:50;;;;;;;1.50;0.80;;;;;;;;;;5012078;28;20488;-77
2023/01/06 11:16:29;;;;;;;1.63;0.80;;;;;;;;;;5012360;28;20456;-77
2023/01/06 11:18:56;;;;;;;3.00;0.70;;;;;;;;;;5012151;28;20026;-77
2023/01/06 11:21:21;;;;;;;1.40;0.90;;;;;;;;;;4992999;28;20022;-78
2023/01/06 11:23:47;;;;;;;0.98;0.80;;;;;;;;;;5011327;28;20608;-78
2023/01/06 11:26:20;;;;;;;1.70;1.00;;;;;;;;;;4993394;28;20010;-78
2023/01/06 11:28:47;;;;;;;1.92;0.93;;;;;;;;;;4994887;28;20018;-78
2023/01/06 11:31:12;;;;;;;1.88;0.82;;;;;;;;;;5009723;28;20096;-78
2023/01/06 11:33:46;;;;;;;1.15;0.80;;;;;;;;;;5011874;28;20121;-78
2023/01/06 11:36:12;;;;;;;3.50;0.90;;;;;;;;;;5011916;28;20025;-78
2023/01/06 11:39:03;;;;;;;3.10;1.10;;;;;;;;;;5010212;28;20029;-78
2023/01/06 11:41:34;;;;;;;3.20;0.80;;;;;;;;;;5006298;28;20041;-78
2023/01/06 11:44:05;;;;;;;2.22;0.95;;;;;;;;;;5010713;28;20025;-78
2023/01/06 11:46:30;;;;;;;2.00;1.10;;;;;;;;;;4993933;28;20073;-78
2023/01/06 11:49:12;;;;;;;1.42;1.13;;;;;;;;;;5011510;28;20041;-78
2023/01/06 11:51:40;;;;;;;1.88;1.20;;;;;;;;;;5010563;28;20080;-78
2023/01/06 11:54:21;;;;;;;3.33;1.20;;;;;;;;;;4993198;28;20077;-78
2023/01/06 11:57:10;;;;;;;2.70;1.50;;;;;;;;;;4998394;28;20357;-78
2023/01/06 11:59:44;;;;;;;2.05;1.75;;;;;;;;;;5011314;28;20022;-78
2023/01/06 12:02:11;;;;;;;2.75;1.60;;;;;;;;;;5011364;28;20134;-78
2023/01/06 12:04:49;;;;;;;2.60;1.50;;;;;;;;;;5011330;28;20021;-77
2023/01/06 12:07:19;;;;;;;2.95;1.80;;;;;;;;;;4995761;28;20480;-78
2023/01/06 12:09:46;;;;;;;3.95;2.17;;;;;;;;;;4992788;28;20034;-77
2023/01/06 12:12:15;;;;;;;5.35;2.00;;;;;;;;;;5010529;28;20010;-78
2023/01/06 12:14:40;;;;;;;5.97;2.17;;;;;;;;;;5011167;28;20101;-77
2023/01/06 12:17:24;;;;;;;3.13;1.85;;;;;;;;;;4994029;28;20472;-79
2023/01/06 12:19:53;;;;;;;3.30;1.90;;;;;;;;;;5010785;28;20144;-78
2023/01/06 12:22:21;;;;;;;2.75;1.83;;;;;;;;;;4997318;28;20030;-77
2023/01/06 12:24:47;;;;;;;3.65;1.58;;;;;;;;;;5008816;28;20022;-78
2023/01/06 12:27:18;;;;;;;2.08;1.40;;;;;;;;;;4993964;28;20045;-78
2023/01/06 12:29:43;;;;;;;1.88;1.20;;;;;;;;;;4998606;28;20022;-78
2023/01/06 12:32:13;;;;;;;1.63;0.93;;;;;;;;;;5009264;28;20018;-77
2023/01/06 12:34:49;;;;;;;1.17;0.90;;;;;;;;;;5008221;28;20039;-77
2023/01/06 12:37:23;;;;;;;1.58;0.90;;;;;;;;;;4994662;28;20033;-78
2023/01/06 12:39:54;;;;;;;1.80;0.90;;;;;;;;;;5011129;28;20426;-77
2023/01/06 12:42:22;;;;;;;1.25;0.85;;;;;;;;;;5010780;28;20465;-77
2023/01/06 12:45:06;;;;;;;2.25;0.70;;;;;;;;;;5007761;28;20018;-77
2023/01/06 12:47:33;;;;;;;1.65;1.00;;;;;;;;;;5009970;28;20026;-77
2023/01/06 12:50:06;;;;;;;1.65;0.70;;;;;;;;;;5009989;28;20022;-77
2023/01/06 12:52:33;;;;;;;1.50;1.00;;;;;;;;;;5011235;28;20428;-77
2023/01/06 12:54:59;;;;;;;1.15;0.85;;;;;;;;;;4991785;28;20029;-77
2023/01/06 12:57:30;;;;;;;1.55;1.00;;;;;;;;;;5008993;28;20030;-78
2023/01/06 13:00:05;;;;;;;1.70;1.10;;;;;;;;;;5011005;28;20365;-78
2023/01/06 13:02:30;;;;;;;1.90;0.90;;;;;;;;;;5011963;28;20140;-78
2023/01/06 13:04:55;;;;;;;1.52;1.00;;;;;;;;;;4996142;28;20061;-78
2023/01/06 13:07:23;;;;;;;1.75;1.02;;;;;;;;;;5014373;28;20022;-78
2023/01/06 13:09:54;;;;;;;4.00;1.98;;;;;;;;;;5014414;28;20056;-78
2023/01/06 13:12:37;;;;;;;4.55;2.13;;;;;;;;;;5013772;28;20018;-77
2023/01/06 13:15:17;;;;;;;4.65;2.20;;;;;;;;;;5001698;28;20017;-78
2023/01/06 13:17:54;;;;;;;2.70;1.60;;;;;;;;;;5014332;28;20068;-77
2023/01/06 13:20:22;;;;;;;4.10;2.15;;;;;;;;;;5013602;28;20100;-77
2023/01/06 13:23:03;;;;;;;3.95;1.77;;;;;;;;;;5014429;28;20384;-78
2023/01/06 13:25:47;;;;;;;4.03;1.90;;;;;;;;;;5014323;28;20049;-77
2023/01/06 13:28:18;;;;;;;5.93;1.42;;;;;;;;;;4996346;28;20045;-78
2023/01/06 13:30:52;;;;;;;3.70;1.63;;;;;;;;;;5014326;28;20076;-78
2023/01/06 13:33:26;;;;;;;5.60;1.60;;;;;;;;;;5014038;28;20112;-77
2023/01/06 13:35:57;;;;;;;5.25;2.05;;;;;;;;;;5010316;28;20021;-77
2023/01/06 13:38:31;;;;;;;4.20;1.60;;;;;;;;;;5014002;28;20025;-78
2023/01/06 13:40:59;;;;;;;4.35;1.98;;;;;;;;;;4995658;28;20029;-77
2023/01/06 13:43:26;;;;;;;4.97;2.08;;;;;;;;;;4995420;28;20053;-78
2023/01/06 13:45:55;;;;;;;4.85;1.90;;;;;;;;;;4992445;28;20029;-78
2023/01/06 13:48:23;;;;;;;3.45;1.42;;;;;;;;;;4995883;28;20022;-77
2023/01/06 13:50:49;;;;;;;4.75;1.85;;;;;;;;;;5013802;28;20018;-77
2023/01/06 13:53:17;;;;;;;4.03;1.92;;;;;;;;;;4994897;28;20080;-78
2023/01/06 13:55:42;;;;;;;4.50;2.50;;;;;;;;;;4995190;28;20026;-77
2023/01/06 13:58:22;;;;;;;8.88;2.83;;;;;;;;;;5013533;28;20018;-77
2023/01/06 14:01:06;;;;;;;5.53;2.47;;;;;;;;;;4995002;28;20104;-77
2023/01/06 14:03:32;;;;;;;3.65;2.28;;;;;;;;;;5013391;28;20038;-78
2023/01/06 14:05:58;;;;;;;3.38;2.17;;;;;;;;;;4992675;28;20111;-78
2023/01/06 14:08:25;;;;;;;3.03;2.15;;;;;;;;;;4998249;28;20030;-78
2023/01/06 14:10:55;;;;;;;3.88;2.40;;;;;;;;;;5013453;28;20445;-78
2023/01/06 14:13:33;;;;;;;3.97;2.05;;;;;;;;;;5012621;28;20022;-78
2023/01/06 14:16:08;;;;;;;4.97;2.50;;;;;;;;;;5012916;28;20020;-77
2023/01/06 14:18:36;;;;;;;4.60;1.80;;;;;;;;;;5013266;28;20326;-78
2023/01/06 14:21:05;;;;;;;3.78;2.10;;;;;;;;;;4995710;28;20022;-78
2023/01/06 14:23:31;;;;;;;3.05;2.33;;;;;;;;;;5010503;28;20477;-77
2023/01/06 14:25:56;;;;;;;4.25;1.85;;;;;;;;;;5013230;28;20022;-78
2023/01/06 14:28:26;;;;;;;5.25;2.28;;;;;;;;;;4995117;28;20030;-78
2023/01/06 14:31:12;;;;;;;4.00;2.45;;;;;;;;;;4995443;28;20025;-78
2023/01/06 14:33:41;;;;;;;5.25;2.05;;;;;;;;;;4995202;28;20069;-78
2023/01/06 14:36:13;;;;;;;5.32;2.50;;;;;;;;;;4995384;28;20037;-77
2023/01/06 14:38:53;;;;;;;4.18;2.22;;;;;;;;;;5011788;28;20026;-78
2023/01/06 14:41:22;;;;;;;3.90;1.92;;;;;;;;;;4995144;28;20461;-78
2023/01/06 14:43:54;;;;;;;3.83;1.85;;;;;;;;;;5012401;28;20024;-78
2023/01/06 14:46:23;;;;;;;4.20;2.20;;;;;;;;;;5005907;28;20454;-78
2023/01/06 14:48:57;;;;;;;4.05;2.13;;;;;;;;;;4994782;28;20022;-77
2023/01/06 14:51:23;;;;;;;2.97;1.70;;;;;;;;;;5012971;28;20053;-77
2023/01/06 14:53:52;;;;;;;2.15;1.67;;;;;;;;;;5012433;28;20331;-78
2023/01/06 14:56:18;;;;;;;3.75;1.70;;;;;;;;;;4994694;28;20121;-77